W9NTN-2 messages


fromtotime message
KC6VVT W9NTN-2 09/10 21:02:56z Reply Tim, This station is sending lots of RF packets again. 73 Pat{RB}
W9NTN-2 KF5TOT-4 08/10 11:46:35z Send another rejBS
W9NTN-2 KF5TOT-4 08/10 11:45:56z Send another rejBT
W9NTN-2 KF5TOT-4 08/10 11:44:00z Send another rejBP
W9NTN-2 KF5TOT-4 08/10 11:43:38z Send another rejBM
KF5TOT-4 W9NTN-2 08/10 11:42:58z Reply Unable to find location for W9NTN-2{BT
KF5TOT-4 W9NTN-2 08/10 11:42:44z Reply Mostly Sunny High 82{BS
KF5TOT-4 W9NTN-2 08/10 11:42:43z Reply Sublette IL. Hazardous Weather Outlook, Today,Patchy Dense Fog then{BR
W9NTN-2 KF5TOT-4 08/10 11:42:30z Send another rejBQ
W9NTN-2 KF5TOT-4 08/10 11:42:26z Send another rejBK
W9NTN-2 KF5TOT-4 08/10 11:42:14z Send another rejBJ
KF5TOT-4 W9NTN-2 08/10 11:42:10z Reply Unable to find location for W9NTN-2{BQ
W9NTN-2 KF5TOT-4 08/10 11:42:00z Send another rejBL
W9NTN-2 KF5TOT-4 08/10 11:41:56z Send another rejBI
W9NTN-2 KF5TOT-4 08/10 11:41:55z Send another rejBH
KF5TOT-4 W9NTN-2 08/10 11:41:55z Reply Mostly Sunny High 82{BP
KF5TOT-4 W9NTN-2 08/10 11:41:54z Reply Sublette IL. Hazardous Weather Outlook, Today,Patchy Dense Fog then{BO
KF5TOT-4 W9NTN-2 08/10 11:41:31z Reply Unable to find location for W9NTN-2{BN
KF5TOT-4 W9NTN-2 08/10 11:40:51z Reply Mostly Sunny High 82{BM
KF5TOT-4 W9NTN-2 08/10 11:40:50z Reply Sublette IL. Hazardous Weather Outlook, Today,Patchy Dense Fog then{BL
KF5TOT-4 W9NTN-2 08/10 11:40:45z Reply Mostly Sunny High 82{BK
KF5TOT-4 W9NTN-2 08/10 11:40:44z Reply Sublette IL. Hazardous Weather Outlook, Today,Patchy Dense Fog then{BJ
W9NTN-2 KF5TOT-4 08/10 11:39:40z Send another rejBG
KF5TOT-4 W9NTN-2 08/10 11:38:15z Reply Sublette IL. Hazardous Weather Outlook, Today,Patchy Dense Fog then{BHKF5TOT-4>APRS::W9NTN-2 : Mostly Sunny High 82{BI
KF5TOT-4 W9NTN-2 08/10 11:38:15z Reply Sublette IL. Hazardous Weather Outlook, Today,Patchy Dense Fog then{BH
W9NTN-2 KF5TOT-4 08/10 11:37:51z Send another rejBF
W9NTN-2 KF5TOT-4 08/10 11:37:45z Send another rejBE
KF5TOT-4 W9NTN-2 08/10 11:37:41z Reply Unable to find location for W9NTN-2{BG
W9NTN-2 KF5TOT-4 08/10 11:35:33z Send another rejBD
KF5TOT-4 W9NTN-2 08/10 11:35:32z Reply KSEE 101115Z AUTO 30005KT 10SM CLR 25/16 A2998 RMK AO2{BD
KF5TOT-4 W9NTN-2 08/10 11:34:08z Reply KSEE 101115Z AUTO 30005KT 10SM CLR 25/16 A2998 RMK AO2{BF
KF5TOT-4 W9NTN-2 08/10 11:33:52z Reply KSEE 101115Z AUTO 30005KT 10SM CLR 25/16 A2998 RMK AO2{BE
W9NTN-2 KF5TOT-4 08/08 15:36:43z Send another rej2
W9NTN-2 KF5TOT-4 08/08 15:33:08z Send another rejBB
KF5TOT-4 W9NTN-2 08/08 15:27:45z Reply KSEE 081450Z 00000KT 10SM FEW070 23/17 A2993{BB
W9NTN-2 KC6VVT 08/01 16:29:06z Send another rejOW}
KC6VVT W9NTN-2 08/01 16:28:51z Reply PACKETS GONE WILD AGAIN, TIM{OW}
W9NTN-2 KC9ZNV-7 08/01 02:23:01z Send another rejA
W9NTN-2 KC9ZNV-7 07/31 23:39:37z Send another rej1
W9NTN-2 KF5TOT-3 07/23 08:23:39z Send another rej0